Time;durP1;ratioP1;P1;durP2;ratioP2;P2;SDS_P1;SDS_P2;PMS_P1;PMS_P2;Temp;Humidity;BMP_temperature;BMP_pressure;BME280_temperature;BME280_humidity;BME280_pressure;Samples;Min_cycle;Max_cycle;Signal;HPM_P1;HPM_P2
2023/08/14 00:01:22;;;;;;;5.60;2.17;;;22.20;95.00;;;;;;5001511;28;20435;-69
2023/08/14 00:03:48;;;;;;;10.20;2.47;;;22.20;95.10;;;;;;4994079;28;20026;-69
2023/08/14 00:06:13;;;;;;;4.47;2.60;;;22.20;95.00;;;;;;4992281;28;20030;-69
2023/08/14 00:08:39;;;;;;;5.20;2.83;;;22.20;94.90;;;;;;4992194;28;20058;-69
2023/08/14 00:11:04;;;;;;;5.78;2.72;;;22.20;94.50;;;;;;4992648;28;20034;-69
2023/08/14 00:13:47;;;;;;;8.48;2.35;;;22.20;94.50;;;;;;4994612;28;20093;-69
2023/08/14 00:16:12;;;;;;;5.53;2.70;;;22.20;94.50;;;;;;4994890;28;20025;-69
2023/08/14 00:18:38;;;;;;;6.22;2.22;;;22.30;94.40;;;;;;4996194;28;20105;-69
2023/08/14 00:21:04;;;;;;;5.88;2.95;;;22.50;94.20;;;;;;4990528;28;20381;-69
2023/08/14 00:23:29;;;;;;;5.30;2.30;;;22.40;94.30;;;;;;4991203;28;20353;-69
2023/08/14 00:25:55;;;;;;;5.43;2.47;;;22.40;94.20;;;;;;4997541;28;20388;-69
2023/08/14 00:28:20;;;;;;;5.97;2.90;;;22.40;94.30;;;;;;4991841;28;20506;-69
2023/08/14 00:30:46;;;;;;;3.85;2.35;;;22.30;94.60;;;;;;4993240;28;20077;-70
2023/08/14 00:33:12;;;;;;;5.82;3.10;;;22.10;94.70;;;;;;4998448;28;20092;-70
2023/08/14 00:35:37;;;;;;;5.18;2.42;;;22.10;94.90;;;;;;4996868;28;20036;-69
2023/08/14 00:38:03;;;;;;;11.18;3.25;;;22.10;94.90;;;;;;4996296;28;20114;-69
2023/08/14 00:40:29;;;;;;;4.05;2.30;;;22.10;94.80;;;;;;5000521;28;20030;-69
2023/08/14 00:42:54;;;;;;;5.03;2.50;;;22.10;94.70;;;;;;5001450;28;20528;-69
2023/08/14 00:45:20;;;;;;;4.57;2.33;;;22.20;94.70;;;;;;4993774;28;20045;-69
2023/08/14 00:47:47;;;;;;;4.88;2.33;;;22.10;94.90;;;;;;4993825;28;20041;-69
2023/08/14 00:50:13;;;;;;;4.18;2.03;;;22.10;94.80;;;;;;4992204;28;20488;-69
2023/08/14 00:52:43;;;;;;;6.07;2.35;;;22.10;94.90;;;;;;4995550;28;20057;-70
2023/08/14 00:55:13;;;;;;;4.80;2.50;;;22.00;94.80;;;;;;4993420;28;20066;-69
2023/08/14 00:57:39;;;;;;;5.35;2.67;;;22.10;94.70;;;;;;4994947;28;20030;-69
2023/08/14 01:00:06;;;;;;;12.93;2.63;;;22.10;94.90;;;;;;4993125;28;20030;-69
2023/08/14 01:02:36;;;;;;;4.95;2.72;;;22.10;95.00;;;;;;4989628;28;20037;-70
2023/08/14 01:05:02;;;;;;;4.95;3.20;;;22.40;94.90;;;;;;4992392;28;20041;-69
2023/08/14 01:07:29;;;;;;;6.65;2.78;;;22.60;95.10;;;;;;4999280;28;20471;-69
2023/08/14 01:09:56;;;;;;;5.30;3.20;;;22.60;95.10;;;;;;4994109;28;20122;-69
2023/08/14 01:12:51;;;;;;;5.10;2.95;;;21.90;96.20;;;;;;4991633;28;20034;-69
2023/08/14 01:15:43;;;;;;;5.03;2.58;;;21.70;97.00;;;;;;4994648;28;20033;-71
2023/08/14 01:18:12;;;;;;;4.70;2.55;;;21.50;97.40;;;;;;4996344;28;20037;-70
2023/08/14 01:20:40;;;;;;;5.13;2.50;;;21.50;96.90;;;;;;4991406;28;20034;-70
2023/08/14 01:23:20;;;;;;;5.43;2.50;;;21.50;96.60;;;;;;4993977;28;20027;-69
2023/08/14 01:25:47;;;;;;;4.70;2.53;;;21.60;96.50;;;;;;4992289;28;20052;-69
2023/08/14 01:28:13;;;;;;;4.88;2.60;;;21.60;96.40;;;;;;4991409;28;20038;-69
2023/08/14 01:30:39;;;;;;;4.60;2.28;;;21.60;96.20;;;;;;4996237;28;20388;-69
2023/08/14 01:33:05;;;;;;;5.90;2.10;;;21.70;96.00;;;;;;4993393;28;20042;-69
2023/08/14 01:35:39;;;;;;;8.88;2.88;;;21.70;96.00;;;;;;4990346;28;20034;-69
2023/08/14 01:38:23;;;;;;;4.68;2.03;;;21.60;96.00;;;;;;4990224;28;20497;-70
2023/08/14 01:41:07;;;;;;;;;;;21.50;96.20;;;;;;4990838;28;20434;-70
2023/08/14 01:43:48;;;;;;;5.33;2.70;;;21.30;96.50;;;;;;4990129;28;19944;-69
2023/08/14 01:46:15;;;;;;;7.68;2.90;;;21.30;96.40;;;;;;4992298;28;20065;-69
2023/08/14 01:48:41;;;;;;;4.82;2.83;;;21.40;96.50;;;;;;4996283;28;22257;-69
2023/08/14 01:51:10;;;;;;;5.57;2.45;;;21.30;96.50;;;;;;4991595;28;20030;-69
2023/08/14 01:53:36;;;;;;;5.47;2.47;;;21.40;96.20;;;;;;4990787;28;20030;-70
2023/08/14 01:56:02;;;;;;;6.55;3.05;;;21.30;96.50;;;;;;4991755;28;20604;-69
2023/08/14 01:58:28;;;;;;;8.55;2.90;;;21.40;96.40;;;;;;4997733;28;20116;-70
2023/08/14 02:00:54;;;;;;;5.00;2.70;;;21.30;96.60;;;;;;4990956;28;20026;-70
2023/08/14 02:03:19;;;;;;;4.43;2.20;;;21.30;96.80;;;;;;4994682;28;20037;-69
2023/08/14 02:05:45;;;;;;;5.43;2.85;;;21.30;96.50;;;;;;4990190;28;20080;-70
2023/08/14 02:08:11;;;;;;;4.70;2.63;;;21.30;96.50;;;;;;4993717;28;20149;-69
2023/08/14 02:10:36;;;;;;;5.10;2.25;;;21.20;96.60;;;;;;4987952;28;20026;-69
2023/08/14 02:13:02;;;;;;;5.82;2.58;;;21.20;96.60;;;;;;4997046;28;20042;-70
2023/08/14 02:15:28;;;;;;;7.50;3.03;;;21.20;96.40;;;;;;4998922;28;20045;-69
2023/08/14 02:17:53;;;;;;;4.43;2.13;;;21.30;96.50;;;;;;4992170;28;20030;-69
2023/08/14 02:20:19;;;;;;;6.88;2.60;;;21.30;96.70;;;;;;4990297;28;20041;-69
2023/08/14 02:22:46;;;;;;;5.75;2.70;;;21.60;96.50;;;;;;4994711;28;20109;-69
2023/08/14 02:25:11;;;;;;;6.05;2.50;;;21.70;96.50;;;;;;4989487;28;20030;-69
2023/08/14 02:27:37;;;;;;;4.88;2.92;;;21.50;96.80;;;;;;4991782;28;20044;-69
2023/08/14 02:30:03;;;;;;;4.63;2.80;;;21.50;97.00;;;;;;4990639;28;20126;-69
2023/08/14 02:32:29;;;;;;;5.40;2.58;;;21.50;97.20;;;;;;4993680;28;20459;-70
2023/08/14 02:34:55;;;;;;;5.78;2.50;;;21.50;96.90;;;;;;4989604;28;20061;-69
2023/08/14 02:37:21;;;;;;;5.32;2.38;;;21.60;97.20;;;;;;4990732;28;20070;-69
2023/08/14 02:39:47;;;;;;;4.80;2.70;;;21.40;97.40;;;;;;4988326;28;20078;-70
2023/08/14 02:42:17;;;;;;;4.93;2.95;;;21.30;96.90;;;;;;4991502;28;20495;-69
2023/08/14 02:44:43;;;;;;;3.67;2.30;;;21.30;96.70;;;;;;4994636;28;20528;-69
2023/08/14 02:47:09;;;;;;;5.43;2.42;;;21.30;96.50;;;;;;4994593;28;20744;-69
2023/08/14 02:49:35;;;;;;;4.18;2.35;;;21.30;96.70;;;;;;4988566;28;20121;-69
2023/08/14 02:52:01;;;;;;;7.00;2.40;;;21.40;96.80;;;;;;4989394;28;20029;-69
2023/08/14 02:54:26;;;;;;;4.30;2.30;;;21.30;96.40;;;;;;4991099;28;20038;-69
2023/08/14 02:56:52;;;;;;;4.00;2.30;;;21.30;96.70;;;;;;4990659;28;20030;-69
2023/08/14 02:59:18;;;;;;;5.65;2.95;;;21.20;96.30;;;;;;4989656;28;20408;-69
2023/08/14 03:01:44;;;;;;;7.07;2.88;;;21.20;96.40;;;;;;4988087;28;20040;-70
2023/08/14 03:04:10;;;;;;;7.25;2.45;;;21.10;96.50;;;;;;4987144;28;20026;-71
2023/08/14 03:06:35;;;;;;;4.07;2.17;;;21.00;96.70;;;;;;4984139;28;20096;-70
2023/08/14 03:09:02;;;;;;;5.82;2.45;;;21.00;96.70;;;;;;4987276;28;20038;-70
2023/08/14 03:11:27;;;;;;;6.32;2.35;;;20.90;96.90;;;;;;4985721;28;20062;-70
2023/08/14 03:13:54;;;;;;;5.78;2.80;;;21.00;97.00;;;;;;4985840;28;20078;-70
2023/08/14 03:16:19;;;;;;;11.65;2.42;;;20.80;97.10;;;;;;4994984;28;20574;-70
2023/08/14 03:18:45;;;;;;;3.33;1.88;;;20.80;97.30;;;;;;4987536;28;20030;-70
2023/08/14 03:21:11;;;;;;;6.28;2.97;;;20.80;97.30;;;;;;4992074;28;20048;-70
2023/08/14 03:23:37;;;;;;;4.22;2.45;;;20.70;97.60;;;;;;4985092;28;20026;-70
2023/08/14 03:26:03;;;;;;;5.10;2.42;;;20.70;97.40;;;;;;4996269;28;20031;-71
2023/08/14 03:28:29;;;;;;;6.03;3.03;;;20.70;97.20;;;;;;4996702;28;20027;-70
2023/08/14 03:30:55;;;;;;;7.07;2.45;;;20.80;97.30;;;;;;4996761;28;20149;-70
2023/08/14 03:33:20;;;;;;;4.25;2.05;;;20.80;97.40;;;;;;4990164;28;20085;-71
2023/08/14 03:35:46;;;;;;;4.88;2.22;;;20.80;97.50;;;;;;4999384;28;20077;-71
2023/08/14 03:38:12;;;;;;;4.70;2.72;;;20.80;97.90;;;;;;4991304;28;20048;-70
2023/08/14 03:40:37;;;;;;;7.80;2.78;;;20.70;98.00;;;;;;4987183;28;20030;-71
2023/08/14 03:43:03;;;;;;;6.47;2.50;;;20.80;97.50;;;;;;4992802;28;20062;-70
2023/08/14 03:45:29;;;;;;;3.90;2.38;;;20.70;97.70;;;;;;4994095;28;20069;-70
2023/08/14 03:47:54;;;;;;;4.80;2.55;;;20.60;97.90;;;;;;4993711;28;20407;-70
2023/08/14 03:50:20;;;;;;;6.30;2.80;;;20.60;97.90;;;;;;5002266;28;20445;-70
2023/08/14 03:52:48;;;;;;;4.72;2.75;;;20.60;97.60;;;;;;4987094;28;20034;-70
2023/08/14 03:55:13;;;;;;;5.07;2.35;;;20.70;97.30;;;;;;4990563;28;20037;-71
2023/08/14 03:57:39;;;;;;;4.15;2.30;;;20.70;97.40;;;;;;4992024;28;20022;-70
2023/08/14 04:00:06;;;;;;;4.68;2.72;;;20.90;97.00;;;;;;4987011;28;20030;-70
2023/08/14 04:02:32;;;;;;;6.10;2.47;;;20.90;97.50;;;;;;4986895;28;20054;-70
2023/08/14 04:04:58;;;;;;;4.13;2.78;;;20.80;97.50;;;;;;4990602;28;20058;-70
2023/08/14 04:07:23;;;;;;;8.25;2.83;;;20.50;97.90;;;;;;4987734;28;20060;-70
2023/08/14 04:09:49;;;;;;;5.80;2.63;;;20.50;98.00;;;;;;4999920;28;20037;-71
2023/08/14 04:12:14;;;;;;;5.05;2.97;;;20.40;98.10;;;;;;4990801;28;20033;-71
2023/08/14 04:14:40;;;;;;;6.07;3.13;;;20.50;97.60;;;;;;4988888;28;20316;-70
2023/08/14 04:17:06;;;;;;;6.90;2.92;;;20.80;97.10;;;;;;4988748;28;20077;-70
2023/08/14 04:19:31;;;;;;;6.53;2.67;;;21.00;96.90;;;;;;4992350;28;20031;-70
2023/08/14 04:21:57;;;;;;;6.35;2.83;;;21.00;97.00;;;;;;4988294;28;20045;-70
2023/08/14 04:24:23;;;;;;;5.13;2.67;;;20.90;97.20;;;;;;4989530;28;20504;-71
2023/08/14 04:26:48;;;;;;;4.65;3.00;;;20.80;97.10;;;;;;4989957;28;20584;-71
2023/08/14 04:29:16;;;;;;;6.68;2.70;;;20.70;97.20;;;;;;4988914;28;20030;-70
2023/08/14 04:31:41;;;;;;;6.75;2.60;;;20.80;97.40;;;;;;4995199;28;20120;-70
2023/08/14 04:34:09;;;;;;;4.63;2.75;;;20.70;97.30;;;;;;4986056;28;20105;-70
2023/08/14 04:36:35;;;;;;;4.38;2.45;;;20.70;97.50;;;;;;4994823;28;20025;-71
2023/08/14 04:39:03;;;;;;;5.57;2.53;;;20.60;97.60;;;;;;4989348;28;20061;-72
2023/08/14 04:41:29;;;;;;;5.07;2.60;;;20.70;97.60;;;;;;4994196;28;20022;-70
2023/08/14 04:43:56;;;;;;;4.60;3.17;;;20.60;97.70;;;;;;4995101;28;20101;-70
2023/08/14 04:46:33;;;;;;;4.63;2.80;;;20.50;97.80;;;;;;4988655;28;20564;-69
2023/08/14 04:48:59;;;;;;;5.63;2.95;;;20.60;97.80;;;;;;4985433;28;20034;-70
2023/08/14 04:51:26;;;;;;;5.55;2.53;;;20.50;97.70;;;;;;4985736;28;20027;-70
2023/08/14 04:53:54;;;;;;;3.92;2.40;;;20.40;98.20;;;;;;4989869;28;20084;-70
2023/08/14 04:56:20;;;;;;;4.95;3.00;;;20.40;98.40;;;;;;4987918;28;20026;-70
2023/08/14 04:58:45;;;;;;;6.25;2.67;;;20.10;99.20;;;;;;4987717;28;20461;-70
2023/08/14 05:01:11;;;;;;;4.55;2.45;;;20.10;99.30;;;;;;4992633;28;20396;-70
2023/08/14 05:03:37;;;;;;;6.57;2.47;;;20.30;98.90;;;;;;4992183;28;20035;-70
2023/08/14 05:06:03;;;;;;;8.90;2.88;;;20.30;98.70;;;;;;4984991;28;20041;-70
2023/08/14 05:08:29;;;;;;;7.85;2.80;;;20.40;98.50;;;;;;4986815;28;20506;-70
2023/08/14 05:10:55;;;;;;;4.20;2.60;;;20.40;98.50;;;;;;4986403;28;20030;-70
2023/08/14 05:13:21;;;;;;;4.28;2.33;;;20.40;98.80;;;;;;4988467;28;20080;-70
2023/08/14 05:15:48;;;;;;;5.13;3.03;;;20.50;98.50;;;;;;4986419;28;20106;-70
2023/08/14 05:18:14;;;;;;;5.55;3.45;;;20.60;98.70;;;;;;4990676;28;20030;-70
2023/08/14 05:20:44;;;;;;;7.05;3.63;;;20.50;99.00;;;;;;4987145;28;20043;-70
2023/08/14 05:23:11;;;;;;;6.07;3.05;;;20.40;99.10;;;;;;4994038;28;20017;-70
2023/08/14 05:25:36;;;;;;;7.57;3.28;;;20.50;99.20;;;;;;4991522;28;20622;-70
2023/08/14 05:28:03;;;;;;;6.15;2.63;;;20.70;99.10;;;;;;4988894;28;20066;-70
2023/08/14 05:30:29;;;;;;;9.73;3.28;;;20.60;99.20;;;;;;4990900;28;20637;-70
2023/08/14 05:32:55;;;;;;;9.50;3.45;;;20.80;98.70;;;;;;4986175;28;20035;-70
2023/08/14 05:35:24;;;;;;;5.30;3.03;;;20.80;98.50;;;;;;4990578;28;20488;-70
2023/08/14 05:37:52;;;;;;;6.55;3.10;;;21.00;98.50;;;;;;4991082;28;20038;-70
2023/08/14 05:40:19;;;;;;;8.07;2.83;;;21.00;98.50;;;;;;4983935;28;20112;-70
2023/08/14 05:42:48;;;;;;;5.65;3.00;;;21.00;98.20;;;;;;4987044;28;20598;-70
2023/08/14 05:45:14;;;;;;;5.90;2.88;;;21.00;98.30;;;;;;4989932;28;20027;-70
2023/08/14 05:47:40;;;;;;;6.53;2.70;;;20.90;99.10;;;;;;4983470;28;20046;-69
2023/08/14 05:50:06;;;;;;;5.05;3.17;;;20.90;98.80;;;;;;4990499;28;20961;-69
2023/08/14 05:52:31;;;;;;;5.25;2.78;;;21.10;98.10;;;;;;4984930;28;20504;-70
2023/08/14 05:54:57;;;;;;;5.20;2.80;;;21.00;99.00;;;;;;4986870;28;20030;-71
2023/08/14 05:57:22;;;;;;;9.68;3.75;;;20.90;99.10;;;;;;4987239;28;20030;-70
2023/08/14 05:59:48;;;;;;;7.90;3.03;;;20.90;99.50;;;;;;4984551;28;20026;-70
2023/08/14 06:02:14;;;;;;;6.80;3.28;;;20.80;99.90;;;;;;4987892;28;20094;-70
2023/08/14 06:04:40;;;;;;;5.43;3.08;;;20.70;99.90;;;;;;4987526;28;20030;-70
2023/08/14 06:07:06;;;;;;;6.10;3.38;;;20.60;99.90;;;;;;4986633;28;20041;-70
2023/08/14 06:09:32;;;;;;;7.15;2.67;;;20.70;99.90;;;;;;4982524;28;20027;-70
2023/08/14 06:11:57;;;;;;;6.25;3.05;;;20.70;99.90;;;;;;4988752;28;20054;-70
2023/08/14 06:14:23;;;;;;;6.55;3.22;;;20.80;99.90;;;;;;4988546;28;20107;-70
2023/08/14 06:16:49;;;;;;;6.70;3.92;;;20.90;99.90;;;;;;4988661;28;20050;-70
2023/08/14 06:19:14;;;;;;;5.20;2.95;;;20.90;99.90;;;;;;4988136;28;20053;-70
2023/08/14 06:21:40;;;;;;;4.47;2.28;;;21.00;99.90;;;;;;4988532;28;20468;-70
2023/08/14 06:24:06;;;;;;;7.60;2.80;;;21.20;99.90;;;;;;4984515;28;20487;-70
2023/08/14 06:26:32;;;;;;;6.30;2.80;;;21.40;99.90;;;;;;4986598;28;20037;-69
2023/08/14 06:28:57;;;;;;;5.85;3.03;;;21.50;99.90;;;;;;4992545;28;20103;-70
2023/08/14 06:31:23;;;;;;;4.50;2.78;;;21.70;99.90;;;;;;4988182;28;20452;-69
2023/08/14 06:33:49;;;;;;;4.93;3.30;;;21.90;99.90;;;;;;4984221;28;20022;-70
2023/08/14 06:36:15;;;;;;;5.15;3.40;;;22.00;99.90;;;;;;4988992;28;20022;-71
2023/08/14 06:38:41;;;;;;;7.40;3.28;;;22.10;99.90;;;;;;4984278;28;20429;-70
2023/08/14 06:41:07;;;;;;;6.60;3.50;;;22.20;99.10;;;;;;4987346;28;20109;-68
2023/08/14 06:43:32;;;;;;;5.68;3.35;;;22.40;99.20;;;;;;4988583;28;20030;-70
2023/08/14 06:45:58;;;;;;;7.28;3.17;;;22.50;99.90;;;;;;4987163;28;20130;-70
2023/08/14 06:48:24;;;;;;;7.53;3.15;;;22.80;99.90;;;;;;4988863;28;20544;-70
2023/08/14 06:50:50;;;;;;;5.15;3.42;;;22.90;99.90;;;;;;4984052;28;20053;-69
2023/08/14 06:53:15;;;;;;;5.68;3.05;;;22.90;99.90;;;;;;4984824;28;20539;-69
2023/08/14 06:55:46;;;;;;;5.45;3.17;;;23.00;99.90;;;;;;5000181;28;20638;-69
2023/08/14 06:58:11;;;;;;;5.88;3.10;;;23.20;99.90;;;;;;5077045;23;20172;-68
2023/08/14 07:00:37;;;;;;;4.63;3.28;;;23.40;99.50;;;;;;4989297;28;20149;-68
2023/08/14 07:03:03;;;;;;;8.23;2.80;;;23.50;98.80;;;;;;4992008;28;20076;-67
2023/08/14 07:05:29;;;;;;;6.07;2.97;;;23.60;98.40;;;;;;4990904;28;20879;-67
2023/08/14 07:07:54;;;;;;;5.07;3.17;;;24.20;98.20;;;;;;4994712;28;20096;-68
2023/08/14 07:10:20;;;;;;;6.20;3.40;;;25.10;97.90;;;;;;4993304;28;20034;-67
2023/08/14 07:12:46;;;;;;;5.95;2.90;;;26.30;97.20;;;;;;4991418;28;20515;-66
2023/08/14 07:15:11;;;;;;;6.22;3.03;;;27.50;95.70;;;;;;4988427;28;20554;-68
2023/08/14 07:17:37;;;;;;;5.68;3.28;;;28.70;94.00;;;;;;4985930;28;20109;-69
2023/08/14 07:20:06;;;;;;;4.80;3.15;;;30.10;92.60;;;;;;4986607;28;20061;-68
2023/08/14 07:22:32;;;;;;;5.78;3.58;;;31.00;91.50;;;;;;4986105;28;20032;-69
2023/08/14 07:24:57;;;;;;;6.80;3.67;;;31.10;90.90;;;;;;4988201;28;20034;-68
2023/08/14 07:27:23;;;;;;;4.88;3.10;;;31.20;90.90;;;;;;4991373;28;20037;-68
2023/08/14 07:29:48;;;;;;;7.60;3.55;;;31.30;90.70;;;;;;4988230;28;20034;-68
2023/08/14 07:32:14;;;;;;;6.20;3.55;;;31.60;90.30;;;;;;4989517;28;20602;-67
2023/08/14 07:34:40;;;;;;;7.10;3.58;;;31.90;89.50;;;;;;4986728;28;20101;-68
2023/08/14 07:37:05;;;;;;;6.22;3.13;;;32.00;89.50;;;;;;4987714;28;20109;-68
2023/08/14 07:39:31;;;;;;;6.28;3.42;;;32.20;90.00;;;;;;4997073;28;20117;-68
2023/08/14 07:41:57;;;;;;;5.45;3.30;;;31.80;89.70;;;;;;4989568;28;20038;-69
2023/08/14 07:44:22;;;;;;;7.10;3.13;;;31.60;89.90;;;;;;5001939;28;20034;-69
2023/08/14 07:46:48;;;;;;;8.35;3.50;;;31.30;90.10;;;;;;4987129;28;20124;-70
2023/08/14 07:49:13;;;;;;;7.72;3.63;;;31.10;89.40;;;;;;4988907;28;20166;-70
2023/08/14 07:51:39;;;;;;;5.55;2.97;;;28.90;91.00;;;;;;4992638;28;20112;-70
2023/08/14 07:54:05;;;;;;;11.23;3.33;;;26.90;92.90;;;;;;4993709;28;20138;-70
2023/08/14 07:56:31;;;;;;;5.38;3.15;;;25.80;93.70;;;;;;4985597;28;20115;-70
2023/08/14 07:58:56;;;;;;;8.77;4.10;;;25.30;94.80;;;;;;4990628;28;20807;-70
2023/08/14 08:01:22;;;;;;;7.97;3.80;;;25.00;95.70;;;;;;4987270;28;20030;-70
2023/08/14 08:03:47;;;;;;;6.10;3.40;;;24.90;95.60;;;;;;4985860;28;20034;-70
2023/08/14 08:06:13;;;;;;;6.90;3.92;;;24.70;95.70;;;;;;4989256;28;20080;-70
2023/08/14 08:08:39;;;;;;;13.15;4.55;;;24.70;95.30;;;;;;4989683;28;20117;-70
2023/08/14 08:11:04;;;;;;;7.90;3.90;;;24.60;95.60;;;;;;4986968;28;20447;-70
2023/08/14 08:13:30;;;;;;;8.45;3.42;;;24.80;96.10;;;;;;4992284;28;20448;-70
2023/08/14 08:15:56;;;;;;;8.18;3.90;;;24.80;95.10;;;;;;4993003;28;20658;-70
2023/08/14 08:18:21;;;;;;;6.13;3.38;;;25.00;95.50;;;;;;4986193;28;20058;-70
2023/08/14 08:20:47;;;;;;;11.82;4.10;;;25.00;94.70;;;;;;4986615;28;20030;-70
2023/08/14 08:23:12;;;;;;;6.28;3.70;;;25.10;94.50;;;;;;4984368;28;20034;-70
2023/08/14 08:25:38;;;;;;;11.45;4.15;;;25.10;95.60;;;;;;4998194;28;20109;-70
2023/08/14 08:28:04;;;;;;;7.63;4.10;;;25.00;95.70;;;;;;4996630;28;20118;-70
2023/08/14 08:30:30;;;;;;;8.50;4.20;;;25.80;95.30;;;;;;4986406;28;20033;-69
2023/08/14 08:32:55;;;;;;;5.65;3.55;;;28.30;93.20;;;;;;4989783;28;20856;-70
2023/08/14 08:35:21;;;;;;;8.13;3.60;;;30.10;92.10;;;;;;4996527;28;20062;-69
2023/08/14 08:37:47;;;;;;;6.63;3.88;;;30.60;91.20;;;;;;4997169;28;20061;-70
2023/08/14 08:40:12;;;;;;;7.55;3.67;;;30.70;90.60;;;;;;4983569;28;20046;-70
2023/08/14 08:42:38;;;;;;;7.80;3.55;;;31.20;90.90;;;;;;4990957;28;20103;-70
2023/08/14 08:45:05;;;;;;;5.47;3.50;;;30.90;91.00;;;;;;4984974;28;20034;-69
2023/08/14 08:47:35;;;;;;;6.68;3.60;;;31.10;91.10;;;;;;4986719;28;20033;-70
2023/08/14 08:50:01;;;;;;;7.65;3.38;;;30.70;90.90;;;;;;4990828;28;20113;-70
2023/08/14 08:52:27;;;;;;;6.97;4.07;;;30.70;90.90;;;;;;4989208;28;20028;-70
2023/08/14 08:54:54;;;;;;;7.60;3.88;;;30.70;91.40;;;;;;4988052;28;20073;-69
2023/08/14 08:57:21;;;;;;;10.45;3.63;;;30.10;91.40;;;;;;4987579;28;20048;-68
2023/08/14 08:59:47;;;;;;;7.75;4.47;;;29.70;91.40;;;;;;4983512;28;20487;-68
2023/08/14 09:02:13;;;;;;;7.10;3.72;;;28.80;91.90;;;;;;4983493;28;20026;-69
2023/08/14 09:04:39;;;;;;;9.48;3.70;;;28.10;92.30;;;;;;4985358;28;20431;-68
2023/08/14 09:07:05;;;;;;;10.43;3.75;;;28.10;93.30;;;;;;4985085;28;20108;-69
2023/08/14 09:09:31;;;;;;;6.57;3.63;;;28.10;93.10;;;;;;4984308;28;20502;-69
2023/08/14 09:11:57;;;;;;;5.97;3.95;;;27.70;93.30;;;;;;4987057;28;20033;-68
2023/08/14 09:14:23;;;;;;;8.77;3.67;;;27.70;93.30;;;;;;4986568;28;20587;-68
2023/08/14 09:16:53;;;;;;;6.03;3.70;;;27.60;93.50;;;;;;4986097;28;20377;-68
2023/08/14 09:19:19;;;;;;;8.50;3.95;;;27.90;92.90;;;;;;4984073;28;20062;-68
2023/08/14 09:21:45;;;;;;;12.23;4.10;;;27.80;93.00;;;;;;4990711;28;20125;-69
2023/08/14 09:24:14;;;;;;;9.57;3.88;;;27.70;93.60;;;;;;4999741;28;20395;-68
2023/08/14 09:26:43;;;;;;;6.10;3.42;;;27.50;93.10;;;;;;4986012;28;20377;-69
2023/08/14 09:29:11;;;;;;;9.88;3.75;;;27.70;92.90;;;;;;4984772;28;20034;-68
2023/08/14 09:31:37;;;;;;;7.47;3.22;;;27.90;92.40;;;;;;4983396;28;20026;-68
2023/08/14 09:34:03;;;;;;;9.35;4.28;;;27.70;91.70;;;;;;4990380;28;20034;-68
2023/08/14 09:36:34;;;;;;;10.13;4.07;;;27.60;92.40;;;;;;4982984;28;20136;-67
2023/08/14 09:39:01;;;;;;;6.43;3.80;;;27.70;93.10;;;;;;4986624;28;20041;-68
2023/08/14 09:41:26;;;;;;;5.95;3.42;;;28.00;93.10;;;;;;4981419;28;20483;-68
2023/08/14 09:43:52;;;;;;;5.40;3.63;;;28.30;92.80;;;;;;4988218;28;20034;-68
2023/08/14 09:48:53;;;;;;;18.35;4.70;;;28.50;92.80;;;;;;5010361;23;20149;-75
2023/08/14 09:51:19;;;;;;;5.32;3.63;;;28.50;92.10;;;;;;4965369;28;20042;-75
2023/08/14 09:53:48;;;;;;;7.30;4.15;;;28.40;92.70;;;;;;4966990;28;20129;-74
2023/08/14 09:56:14;;;;;;;7.95;3.75;;;28.40;92.50;;;;;;4965964;28;20031;-74
2023/08/14 09:58:41;;;;;;;6.53;4.22;;;28.50;92.50;;;;;;4977897;28;20069;-74
2023/08/14 10:01:07;;;;;;;7.30;4.03;;;28.60;92.70;;;;;;4963501;28;20030;-75
2023/08/14 10:03:36;;;;;;;6.78;4.05;;;28.60;91.90;;;;;;4965000;28;20030;-75
2023/08/14 10:06:04;;;;;;;11.52;4.30;;;28.60;92.70;;;;;;4966793;28;20081;-75
2023/08/14 10:08:33;;;;;;;8.63;4.07;;;28.70;92.40;;;;;;4965008;28;20043;-76
2023/08/14 10:11:02;;;;;;;17.67;4.20;;;28.50;94.20;;;;;;4962808;28;20034;-76
2023/08/14 10:13:29;;;;;;;5.72;3.60;;;28.80;93.60;;;;;;4967466;28;20043;-76
2023/08/14 10:15:56;;;;;;;7.57;3.58;;;29.10;92.60;;;;;;4970670;28;20499;-76
2023/08/14 10:18:23;;;;;;;6.47;4.40;;;28.90;93.00;;;;;;5065701;23;20061;-80
2023/08/14 10:20:52;;;;;;;6.80;3.90;;;29.20;92.70;;;;;;4974159;28;20044;-80
2023/08/14 10:23:18;;;;;;;7.10;3.95;;;28.90;92.70;;;;;;4965652;28;20583;-80
2023/08/14 10:30:55;;;;;;;5.97;3.95;;;29.30;93.80;;;;;;6043281;23;20928;-72
2023/08/14 10:33:21;;;;;;;5.60;3.28;;;29.40;93.60;;;;;;4984047;28;20035;-72
2023/08/14 10:35:53;;;;;;;6.30;3.22;;;29.60;92.50;;;;;;4985060;28;20023;-72
2023/08/14 10:38:20;;;;;;;4.68;3.00;;;29.20;92.30;;;;;;4986270;28;20387;-73
2023/08/14 10:41:05;;;;;;;8.68;3.40;;;29.40;92.20;;;;;;4980207;28;20120;-72
2023/08/14 10:43:31;;;;;;;5.72;2.85;;;29.60;92.10;;;;;;4985375;28;20061;-73
2023/08/14 10:45:57;;;;;;;6.13;3.22;;;29.90;91.10;;;;;;4985027;28;20605;-73
2023/08/14 10:48:23;;;;;;;5.70;3.60;;;30.10;91.60;;;;;;4984932;28;20045;-73
2023/08/14 10:50:59;;;;;;;9.20;3.83;;;30.20;91.60;;;;;;4985433;28;20117;-72
2023/08/14 10:53:25;;;;;;;11.43;4.13;;;30.00;91.10;;;;;;4984343;28;20066;-73
2023/08/14 10:55:52;;;;;;;8.02;3.60;;;30.20;91.80;;;;;;4977940;28;20059;-73
2023/08/14 10:58:32;;;;;;;4.80;3.25;;;30.30;91.30;;;;;;4980595;28;20147;-73
2023/08/14 11:01:04;;;;;;;4.25;2.97;;;30.60;91.20;;;;;;4985874;28;20049;-73
2023/08/14 11:03:33;;;;;;;5.75;3.58;;;30.40;91.20;;;;;;4984386;28;20085;-72
2023/08/14 11:05:59;;;;;;;34.63;5.60;;;30.50;91.70;;;;;;4985209;28;20034;-73
2023/08/14 11:08:29;;;;;;;9.02;3.40;;;30.50;90.00;;;;;;4983587;28;20514;-73
2023/08/14 11:10:56;;;;;;;8.25;3.33;;;30.50;90.60;;;;;;4985670;28;20041;-73
2023/08/14 11:13:22;;;;;;;8.40;3.85;;;30.50;91.10;;;;;;4985655;28;20030;-73
2023/08/14 11:15:48;;;;;;;7.25;3.65;;;30.60;91.50;;;;;;4984713;28;20034;-73
2023/08/14 11:18:15;;;;;;;5.00;3.38;;;30.80;89.90;;;;;;4984913;28;20649;-73
2023/08/14 11:20:42;;;;;;;10.48;3.45;;;30.70;89.70;;;;;;4984476;28;20022;-72
2023/08/14 11:23:09;;;;;;;6.65;3.45;;;30.60;90.10;;;;;;4983336;28;20033;-74
2023/08/14 11:25:34;;;;;;;5.88;3.00;;;30.60;90.60;;;;;;4984754;28;20496;-73
2023/08/14 11:28:01;;;;;;;6.45;3.25;;;30.60;90.80;;;;;;4985785;28;20046;-73
2023/08/14 11:30:33;;;;;;;6.80;3.47;;;30.80;89.50;;;;;;4985686;28;20026;-73
2023/08/14 11:32:58;;;;;;;6.28;2.85;;;30.90;88.90;;;;;;4985402;28;20049;-73
2023/08/14 11:35:28;;;;;;;5.75;3.35;;;31.10;88.10;;;;;;4986072;28;20036;-73
2023/08/14 11:37:55;;;;;;;5.40;2.85;;;30.90;89.00;;;;;;4985944;28;20018;-73
2023/08/14 11:40:21;;;;;;;4.18;2.75;;;30.90;88.90;;;;;;4985581;28;20058;-73
2023/08/14 11:42:47;;;;;;;6.32;2.85;;;31.10;89.60;;;;;;4985497;28;20495;-73
2023/08/14 11:45:13;;;;;;;5.10;2.60;;;31.30;88.80;;;;;;4985674;28;20451;-73
2023/08/14 11:47:49;;;;;;;6.70;2.75;;;31.20;87.80;;;;;;4988932;28;20437;-73
2023/08/14 11:50:17;;;;;;;6.95;2.95;;;31.20;87.90;;;;;;4989112;28;20038;-73
2023/08/14 11:52:44;;;;;;;5.38;2.90;;;31.20;88.80;;;;;;4989361;28;20041;-73
2023/08/14 11:55:10;;;;;;;6.07;2.78;;;31.10;87.70;;;;;;4989455;28;20023;-73
2023/08/14 11:57:37;;;;;;;8.88;3.03;;;31.10;87.50;;;;;;4989346;28;20080;-73
2023/08/14 12:00:10;;;;;;;4.78;2.38;;;31.50;88.90;;;;;;4989203;28;20809;-73
2023/08/14 12:02:38;;;;;;;5.10;1.92;;;31.70;90.00;;;;;;4989086;28;20412;-73
2023/08/14 12:05:04;;;;;;;6.50;2.53;;;31.90;82.40;;;;;;4989134;28;20037;-73
2023/08/14 12:07:31;;;;;;;12.55;2.25;;;32.30;84.30;;;;;;4988747;28;20038;-73
2023/08/14 12:09:57;;;;;;;4.63;2.00;;;32.50;84.10;;;;;;4988466;28;20034;-73
2023/08/14 12:12:26;;;;;;;4.68;2.25;;;32.50;82.80;;;;;;4988517;28;20022;-73
2023/08/14 12:14:53;;;;;;;6.43;2.45;;;32.40;81.80;;;;;;4988571;28;20097;-72
2023/08/14 12:17:19;;;;;;;4.20;2.10;;;32.50;81.50;;;;;;4991174;28;20138;-73
2023/08/14 12:19:49;;;;;;;10.13;2.30;;;32.50;80.80;;;;;;4991404;28;20050;-73
2023/08/14 12:22:15;;;;;;;3.65;2.17;;;32.60;79.70;;;;;;4991177;28;20027;-72
2023/08/14 12:24:44;;;;;;;4.63;2.65;;;32.70;81.60;;;;;;4991169;28;20022;-73
2023/08/14 12:27:28;;;;;;;4.47;2.40;;;32.60;80.20;;;;;;4991385;28;20034;-73
2023/08/14 12:29:55;;;;;;;6.72;2.22;;;32.60;81.60;;;;;;4990949;28;20468;-73
2023/08/14 12:32:22;;;;;;;5.43;2.75;;;32.70;80.10;;;;;;4990516;28;20050;-74
2023/08/14 12:34:48;;;;;;;7.32;2.17;;;32.90;78.70;;;;;;4991195;28;20133;-73
2023/08/14 12:37:15;;;;;;;6.22;2.40;;;32.80;75.70;;;;;;4991354;28;20031;-73
2023/08/14 12:39:43;;;;;;;4.45;3.08;;;32.80;74.80;;;;;;4991178;28;20041;-73
2023/08/14 12:42:11;;;;;;;5.93;2.55;;;32.80;77.60;;;;;;4990955;28;20472;-73
2023/08/14 12:44:37;;;;;;;6.68;3.05;;;33.10;79.00;;;;;;4991106;28;20073;-73
2023/08/14 12:47:03;;;;;;;5.22;2.47;;;33.10;76.80;;;;;;4991136;28;20473;-73
2023/08/14 12:49:28;;;;;;;4.82;2.05;;;33.10;76.30;;;;;;4991272;28;20110;-73
2023/08/14 12:51:54;;;;;;;5.80;2.30;;;33.20;77.00;;;;;;4990505;28;20417;-73